sensor_id;sensor_type;location;lat;lon;timestamp;pressure;altitude;pressure_sealevel;temperature
12430;BMP280;6279;42.192;24.326;2022-12-29T00:02:11;100322.00;;;7.33
12430;BMP280;6279;42.192;24.326;2022-12-29T00:04:37;100321.34;;;7.42
12430;BMP280;6279;42.192;24.326;2022-12-29T00:07:03;100320.03;;;7.47
12430;BMP280;6279;42.192;24.326;2022-12-29T00:09:31;100320.03;;;7.47
12430;BMP280;6279;42.192;24.326;2022-12-29T00:11:57;100315.69;;;7.47
12430;BMP280;6279;42.192;24.326;2022-12-29T00:14:23;100327.47;;;7.51
12430;BMP280;6279;42.192;24.326;2022-12-29T00:17:07;100320.84;;;7.47
12430;BMP280;6279;42.192;24.326;2022-12-29T00:19:32;100320.38;;;7.32
12430;BMP280;6279;42.192;24.326;2022-12-29T00:22:16;100327.41;;;7.30
12430;BMP280;6279;42.192;24.326;2022-12-29T00:25:00;100334.94;;;7.22
12430;BMP280;6279;42.192;24.326;2022-12-29T00:27:27;100338.84;;;7.27
12430;BMP280;6279;42.192;24.326;2022-12-29T00:30:13;100334.47;;;7.28
12430;BMP280;6279;42.192;24.326;2022-12-29T00:32:57;100342.25;;;7.28
12430;BMP280;6279;42.192;24.326;2022-12-29T00:35:52;100345.66;;;7.18
12430;BMP280;6279;42.192;24.326;2022-12-29T00:38:19;100349.28;;;7.15
12430;BMP280;6279;42.192;24.326;2022-12-29T00:41:03;100351.75;;;7.17
12430;BMP280;6279;42.192;24.326;2022-12-29T00:43:47;100353.28;;;7.30
12430;BMP280;6279;42.192;24.326;2022-12-29T00:46:35;100349.56;;;7.34
12430;BMP280;6279;42.192;24.326;2022-12-29T00:49:01;100340.63;;;7.38
12430;BMP280;6279;42.192;24.326;2022-12-29T00:51:46;100348.16;;;7.41
12430;BMP280;6279;42.192;24.326;2022-12-29T00:54:11;100343.44;;;7.45
12430;BMP280;6279;42.192;24.326;2022-12-29T00:56:37;100344.16;;;7.47
12430;BMP280;6279;42.192;24.326;2022-12-29T00:59:09;100347.72;;;7.57
12430;BMP280;6279;42.192;24.326;2022-12-29T01:01:35;100351.44;;;7.43
12430;BMP280;6279;42.192;24.326;2022-12-29T01:04:00;100340.72;;;7.25
12430;BMP280;6279;42.192;24.326;2022-12-29T01:06:26;100349.06;;;7.29
12430;BMP280;6279;42.192;24.326;2022-12-29T01:08:51;100349.91;;;7.40
12430;BMP280;6279;42.192;24.326;2022-12-29T01:11:36;100351.41;;;7.32
12430;BMP280;6279;42.192;24.326;2022-12-29T01:14:02;100341.69;;;7.35
12430;BMP280;6279;42.192;24.326;2022-12-29T01:16:27;100343.44;;;7.45
12430;BMP280;6279;42.192;24.326;2022-12-29T01:18:53;100338.41;;;7.33
12430;BMP280;6279;42.192;24.326;2022-12-29T01:21:21;100335.41;;;7.16
12430;BMP280;6279;42.192;24.326;2022-12-29T01:23:57;100334.47;;;7.28
12430;BMP280;6279;42.192;24.326;2022-12-29T01:26:25;100331.19;;;7.15
12430;BMP280;6279;42.192;24.326;2022-12-29T01:28:50;100325.09;;;6.93
12430;BMP280;6279;42.192;24.326;2022-12-29T01:31:16;100329.22;;;6.85
12430;BMP280;6279;42.192;24.326;2022-12-29T01:33:42;100319.91;;;6.82
12430;BMP280;6279;42.192;24.326;2022-12-29T01:36:10;100318.63;;;6.88
12430;BMP280;6279;42.192;24.326;2022-12-29T01:38:37;100319.56;;;6.87
12430;BMP280;6279;42.192;24.326;2022-12-29T01:41:04;100311.94;;;6.85
12430;BMP280;6279;42.192;24.326;2022-12-29T01:46:43;100319.88;;;6.72
12430;BMP280;6279;42.192;24.326;2022-12-29T01:49:23;100306.88;;;6.61
12430;BMP280;6279;42.192;24.326;2022-12-29T01:51:57;100303.16;;;6.42
12430;BMP280;6279;42.192;24.326;2022-12-29T01:54:28;100299.63;;;6.09
12430;BMP280;6279;42.192;24.326;2022-12-29T01:56:57;100304.31;;;5.92
12430;BMP280;6279;42.192;24.326;2022-12-29T01:59:32;100304.91;;;5.95
12430;BMP280;6279;42.192;24.326;2022-12-29T02:01:58;100302.59;;;6.03
12430;BMP280;6279;42.192;24.326;2022-12-29T02:04:24;100298.94;;;5.95
12430;BMP280;6279;42.192;24.326;2022-12-29T02:06:55;100296.63;;;6.03
12430;BMP280;6279;42.192;24.326;2022-12-29T02:09:22;100299.91;;;6.05
12430;BMP280;6279;42.192;24.326;2022-12-29T02:11:48;100298.59;;;5.99
12430;BMP280;6279;42.192;24.326;2022-12-29T02:14:14;100293.47;;;5.87
12430;BMP280;6279;42.192;24.326;2022-12-29T02:31:31;100285.88;;;5.49
12430;BMP280;6279;42.192;24.326;2022-12-29T02:34:10;100293.13;;;5.44
12430;BMP280;6279;42.192;24.326;2022-12-29T02:42:50;100290.03;;;5.27
12430;BMP280;6279;42.192;24.326;2022-12-29T02:45:25;100284.75;;;5.16
12430;BMP280;6279;42.192;24.326;2022-12-29T02:47:56;100272.59;;;5.06
12430;BMP280;6279;42.192;24.326;2022-12-29T02:50:32;100273.66;;;5.03
12430;BMP280;6279;42.192;24.326;2022-12-29T02:53:05;100271.34;;;5.11
12430;BMP280;6279;42.192;24.326;2022-12-29T02:55:31;100266.53;;;5.07
12430;BMP280;6279;42.192;24.326;2022-12-29T03:17:46;100261.53;;;4.80
12430;BMP280;6279;42.192;24.326;2022-12-29T03:20:20;100263.50;;;4.76
12430;BMP280;6279;42.192;24.326;2022-12-29T03:22:51;100261.53;;;4.80
12430;BMP280;6279;42.192;24.326;2022-12-29T03:25:24;100256.38;;;4.80
12430;BMP280;6279;42.192;24.326;2022-12-29T03:28:03;100265.69;;;4.70
12430;BMP280;6279;42.192;24.326;2022-12-29T03:30:31;100267.28;;;4.58
12430;BMP280;6279;42.192;24.326;2022-12-29T03:33:18;100263.56;;;4.50
12430;BMP280;6279;42.192;24.326;2022-12-29T03:35:49;100263.28;;;4.55
12430;BMP280;6279;42.192;24.326;2022-12-29T03:38:23;100259.56;;;4.58
12430;BMP280;6279;42.192;24.326;2022-12-29T03:40:52;100271.81;;;4.55
12430;BMP280;6279;42.192;24.326;2022-12-29T03:43:21;100268.94;;;4.47
12430;BMP280;6279;42.192;24.326;2022-12-29T03:45:46;100267.56;;;4.42
12430;BMP280;6279;42.192;24.326;2022-12-29T03:48:12;100271.31;;;4.50
12430;BMP280;6279;42.192;24.326;2022-12-29T03:50:37;100269.53;;;4.38
12430;BMP280;6279;42.192;24.326;2022-12-29T03:53:03;100269.53;;;4.38
12430;BMP280;6279;42.192;24.326;2022-12-29T03:55:28;100273.44;;;4.32
12430;BMP280;6279;42.192;24.326;2022-12-29T03:57:53;100265.19;;;4.39
12430;BMP280;6279;42.192;24.326;2022-12-29T04:00:19;100271.72;;;4.57
12430;BMP280;6279;42.192;24.326;2022-12-29T04:02:44;100270.69;;;4.59
12430;BMP280;6279;42.192;24.326;2022-12-29T04:05:10;100272.88;;;4.65
12430;BMP280;6279;42.192;24.326;2022-12-29T04:07:35;100277.19;;;4.64
12430;BMP280;6279;42.192;24.326;2022-12-29T04:10:00;100278.13;;;4.63
12430;BMP280;6279;42.192;24.326;2022-12-29T04:12:26;100270.38;;;4.63
12430;BMP280;6279;42.192;24.326;2022-12-29T04:14:51;100272.56;;;4.57
12430;BMP280;6279;42.192;24.326;2022-12-29T04:17:17;100272.13;;;4.63
12430;BMP280;6279;42.192;24.326;2022-12-29T04:19:48;100282.16;;;4.67
12430;BMP280;6279;42.192;24.326;2022-12-29T04:22:13;100285.56;;;4.68
12430;BMP280;6279;42.192;24.326;2022-12-29T04:24:38;100286.69;;;4.76
12430;BMP280;6279;42.192;24.326;2022-12-29T04:27:04;100285.56;;;4.68
12430;BMP280;6279;42.192;24.326;2022-12-29T04:29:29;100293.19;;;4.69
12430;BMP280;6279;42.192;24.326;2022-12-29T04:31:55;100290.09;;;4.77
12430;BMP280;6279;42.192;24.326;2022-12-29T04:34:20;100293.28;;;4.80
12430;BMP280;6279;42.192;24.326;2022-12-29T04:36:46;100292.47;;;4.80
12430;BMP280;6279;42.192;24.326;2022-12-29T04:39:11;100307.22;;;4.78
12430;BMP280;6279;42.192;24.326;2022-12-29T04:41:37;100307.22;;;4.78
12430;BMP280;6279;42.192;24.326;2022-12-29T04:44:02;100308.66;;;4.81
12430;BMP280;6279;42.192;24.326;2022-12-29T04:46:28;100299.16;;;4.70
12430;BMP280;6279;42.192;24.326;2022-12-29T04:48:53;100298.44;;;4.68
12430;BMP280;6279;42.192;24.326;2022-12-29T04:51:19;100295.31;;;4.63
12430;BMP280;6279;42.192;24.326;2022-12-29T04:53:44;100295.94;;;4.54
12430;BMP280;6279;42.192;24.326;2022-12-29T04:56:10;100301.09;;;4.54
12430;BMP280;6279;42.192;24.326;2022-12-29T04:58:36;100301.91;;;4.55
12430;BMP280;6279;42.192;24.326;2022-12-29T05:01:02;100292.19;;;4.46
12430;BMP280;6279;42.192;24.326;2022-12-29T05:03:27;100297.34;;;4.46
12430;BMP280;6279;42.192;24.326;2022-12-29T05:05:54;100294.88;;;4.44
12430;BMP280;6279;42.192;24.326;2022-12-29T05:08:20;100293.63;;;4.37
12430;BMP280;6279;42.192;24.326;2022-12-29T05:10:46;100293.63;;;4.37
12430;BMP280;6279;42.192;24.326;2022-12-29T05:13:11;100283.94;;;4.41
12430;BMP280;6279;42.192;24.326;2022-12-29T05:15:37;100290.53;;;4.33
12430;BMP280;6279;42.192;24.326;2022-12-29T05:18:02;100289.25;;;4.26
12430;BMP280;6279;42.192;24.326;2022-12-29T05:20:27;100294.78;;;4.20
12430;BMP280;6279;42.192;24.326;2022-12-29T05:22:53;100297.03;;;4.12
12430;BMP280;6279;42.192;24.326;2022-12-29T05:25:18;100297.09;;;4.11
12430;BMP280;6279;42.192;24.326;2022-12-29T05:27:44;100298.78;;;4.12
12430;BMP280;6279;42.192;24.326;2022-12-29T05:30:09;100293.97;;;4.19
12430;BMP280;6279;42.192;24.326;2022-12-29T05:32:35;100296.66;;;4.18
12430;BMP280;6279;42.192;24.326;2022-12-29T05:35:00;100296.03;;;4.27
12430;BMP280;6279;42.192;24.326;2022-12-29T05:37:26;100283.56;;;4.21
12430;BMP280;6279;42.192;24.326;2022-12-29T05:39:51;100292.75;;;4.25
12430;BMP280;6279;42.192;24.326;2022-12-29T05:42:17;100290.91;;;4.27
12430;BMP280;6279;42.192;24.326;2022-12-29T05:44:42;100286.88;;;4.23
12430;BMP280;6279;42.192;24.326;2022-12-29T05:47:07;100286.47;;;4.29
12430;BMP280;6279;42.192;24.326;2022-12-29T05:49:33;100290.63;;;4.31
12430;BMP280;6279;42.192;24.326;2022-12-29T05:51:58;100294.03;;;4.32
12430;BMP280;6279;42.192;24.326;2022-12-29T05:54:23;100294.41;;;4.26
12430;BMP280;6279;42.192;24.326;2022-12-29T05:56:49;100290.03;;;4.14
12430;BMP280;6279;42.192;24.326;2022-12-29T05:59:14;100306.16;;;4.04
12430;BMP280;6279;42.192;24.326;2022-12-29T06:01:40;100305.91;;;3.94
12430;BMP280;6279;42.192;24.326;2022-12-29T06:04:05;100306.88;;;4.06
12430;BMP280;6279;42.192;24.326;2022-12-29T06:06:31;100312.41;;;4.00
12430;BMP280;6279;42.192;24.326;2022-12-29T06:08:56;100315.00;;;4.00
12430;BMP280;6279;42.192;24.326;2022-12-29T06:11:21;100322.63;;;3.88
12430;BMP280;6279;42.192;24.326;2022-12-29T06:13:47;100328.91;;;3.84
12430;BMP280;6279;42.192;24.326;2022-12-29T06:16:12;100318.59;;;3.84
12430;BMP280;6279;42.192;24.326;2022-12-29T06:18:38;100319.13;;;4.02
12430;BMP280;6279;42.192;24.326;2022-12-29T06:21:04;100313.13;;;4.15
12430;BMP280;6279;42.192;24.326;2022-12-29T06:23:30;100320.69;;;4.31
12430;BMP280;6279;42.192;24.326;2022-12-29T06:25:56;100320.00;;;4.41
12430;BMP280;6279;42.192;24.326;2022-12-29T06:28:22;100315.94;;;4.51
12430;BMP280;6279;42.192;24.326;2022-12-29T06:30:48;100326.06;;;4.66
12430;BMP280;6279;42.192;24.326;2022-12-29T06:33:13;100326.63;;;4.83
12430;BMP280;6279;42.192;24.326;2022-12-29T06:35:39;100328.00;;;5.01
12430;BMP280;6279;42.192;24.326;2022-12-29T06:38:04;100331.72;;;5.21
12430;BMP280;6279;42.192;24.326;2022-12-29T06:40:31;100336.03;;;5.45
12430;BMP280;6279;42.192;24.326;2022-12-29T06:42:56;100323.84;;;6.42
12430;BMP280;6279;42.192;24.326;2022-12-29T06:45:21;100314.50;;;7.41
12430;BMP280;6279;42.192;24.326;2022-12-29T06:47:47;100310.75;;;8.09
12430;BMP280;6279;42.192;24.326;2022-12-29T06:50:12;100296.41;;;8.67
12430;BMP280;6279;42.192;24.326;2022-12-29T06:52:37;100306.91;;;9.45
12430;BMP280;6279;42.192;24.326;2022-12-29T06:55:03;100313.50;;;10.17
12430;BMP280;6279;42.192;24.326;2022-12-29T06:57:29;100314.66;;;10.98
12430;BMP280;6279;42.192;24.326;2022-12-29T06:59:54;100324.47;;;11.51
12430;BMP280;6279;42.192;24.326;2022-12-29T07:02:21;100320.59;;;11.90
12430;BMP280;6279;42.192;24.326;2022-12-29T07:04:46;100318.31;;;12.31
12430;BMP280;6279;42.192;24.326;2022-12-29T07:07:12;100318.47;;;12.90
12430;BMP280;6279;42.192;24.326;2022-12-29T07:09:37;100309.53;;;13.59
12430;BMP280;6279;42.192;24.326;2022-12-29T07:12:03;100320.50;;;13.71
12430;BMP280;6279;42.192;24.326;2022-12-29T07:14:28;100326.50;;;13.38
12430;BMP280;6279;42.192;24.326;2022-12-29T07:16:53;100316.28;;;12.51
12430;BMP280;6279;42.192;24.326;2022-12-29T07:19:19;100331.19;;;11.80
12430;BMP280;6279;42.192;24.326;2022-12-29T07:22:02;100334.41;;;10.73
12430;BMP280;6279;42.192;24.326;2022-12-29T07:24:28;100320.81;;;10.70
12430;BMP280;6279;42.192;24.326;2022-12-29T07:26:54;100321.78;;;10.96
12430;BMP280;6279;42.192;24.326;2022-12-29T07:29:20;100317.56;;;12.21
12430;BMP280;6279;42.192;24.326;2022-12-29T07:31:45;100311.09;;;13.28
12430;BMP280;6279;42.192;24.326;2022-12-29T07:34:11;100310.47;;;14.24
12430;BMP280;6279;42.192;24.326;2022-12-29T07:36:36;100301.31;;;15.39
12430;BMP280;6279;42.192;24.326;2022-12-29T07:39:02;100300.91;;;16.48
12430;BMP280;6279;42.192;24.326;2022-12-29T07:41:27;100297.13;;;17.81
12430;BMP280;6279;42.192;24.326;2022-12-29T07:43:53;100296.91;;;18.95
12430;BMP280;6279;42.192;24.326;2022-12-29T07:46:18;100302.75;;;19.32
12430;BMP280;6279;42.192;24.326;2022-12-29T07:48:44;100302.38;;;20.34
12430;BMP280;6279;42.192;24.326;2022-12-29T07:51:09;100294.38;;;20.61
12430;BMP280;6279;42.192;24.326;2022-12-29T07:53:35;100296.81;;;20.69
12430;BMP280;6279;42.192;24.326;2022-12-29T07:56:03;100286.75;;;20.39
12430;BMP280;6279;42.192;24.326;2022-12-29T07:58:29;100293.50;;;20.48
12430;BMP280;6279;42.192;24.326;2022-12-29T08:00:56;100297.41;;;20.58
12430;BMP280;6279;42.192;24.326;2022-12-29T08:03:22;100298.66;;;19.83
12430;BMP280;6279;42.192;24.326;2022-12-29T08:05:48;100300.03;;;20.06
12430;BMP280;6279;42.192;24.326;2022-12-29T08:08:13;100293.97;;;20.58
12430;BMP280;6279;42.192;24.326;2022-12-29T08:10:39;100294.97;;;20.57
12430;BMP280;6279;42.192;24.326;2022-12-29T08:13:04;100289.53;;;20.90
12430;BMP280;6279;42.192;24.326;2022-12-29T08:15:32;100303.50;;;20.19
12430;BMP280;6279;42.192;24.326;2022-12-29T08:17:58;100295.94;;;20.49
12430;BMP280;6279;42.192;24.326;2022-12-29T08:20:23;100291.00;;;21.11
12430;BMP280;6279;42.192;24.326;2022-12-29T08:22:52;100288.56;;;21.10
12430;BMP280;6279;42.192;24.326;2022-12-29T08:25:20;100286.13;;;21.34
12430;BMP280;6279;42.192;24.326;2022-12-29T08:27:51;100281.81;;;21.71
12430;BMP280;6279;42.192;24.326;2022-12-29T08:30:27;100280.38;;;22.43
12430;BMP280;6279;42.192;24.326;2022-12-29T08:32:53;100277.88;;;22.91
12430;BMP280;6279;42.192;24.326;2022-12-29T08:35:18;100284.00;;;22.49
12430;BMP280;6279;42.192;24.326;2022-12-29T08:37:44;100281.50;;;23.21
12430;BMP280;6279;42.192;24.326;2022-12-29T08:40:09;100284.72;;;23.53
12430;BMP280;6279;42.192;24.326;2022-12-29T08:42:35;100275.19;;;24.40
12430;BMP280;6279;42.192;24.326;2022-12-29T08:45:01;100269.81;;;24.58
12430;BMP280;6279;42.192;24.326;2022-12-29T08:47:26;100268.97;;;25.15
12430;BMP280;6279;42.192;24.326;2022-12-29T08:49:52;100267.22;;;25.20
12430;BMP280;6279;42.192;24.326;2022-12-29T08:52:17;100263.09;;;25.24
12430;BMP280;6279;42.192;24.326;2022-12-29T08:54:43;100257.34;;;26.33
12430;BMP280;6279;42.192;24.326;2022-12-29T08:57:08;100261.09;;;26.21
12430;BMP280;6279;42.192;24.326;2022-12-29T08:59:34;100249.63;;;26.09
12430;BMP280;6279;42.192;24.326;2022-12-29T09:01:59;100246.91;;;25.82
12430;BMP280;6279;42.192;24.326;2022-12-29T09:04:25;100246.88;;;26.04
12430;BMP280;6279;42.192;24.326;2022-12-29T09:06:52;100235.69;;;26.85
12430;BMP280;6279;42.192;24.326;2022-12-29T09:09:17;100232.44;;;27.15
12430;BMP280;6279;42.192;24.326;2022-12-29T09:11:43;100233.38;;;26.77
12430;BMP280;6279;42.192;24.326;2022-12-29T09:14:09;100231.16;;;25.58
12430;BMP280;6279;42.192;24.326;2022-12-29T09:16:35;100227.91;;;25.67
12430;BMP280;6279;42.192;24.326;2022-12-29T09:19:01;100234.13;;;24.01
12430;BMP280;6279;42.192;24.326;2022-12-29T09:21:29;100220.59;;;23.08
12430;BMP280;6279;42.192;24.326;2022-12-29T09:23:55;100219.59;;;23.03
12430;BMP280;6279;42.192;24.326;2022-12-29T09:26:20;100203.06;;;24.01
12430;BMP280;6279;42.192;24.326;2022-12-29T09:28:45;100203.97;;;24.82
12430;BMP280;6279;42.192;24.326;2022-12-29T09:31:12;100203.19;;;24.53
12430;BMP280;6279;42.192;24.326;2022-12-29T09:33:37;100202.34;;;24.81
12430;BMP280;6279;42.192;24.326;2022-12-29T09:36:03;100200.09;;;25.18
12430;BMP280;6279;42.192;24.326;2022-12-29T09:38:29;100185.34;;;25.83
12430;BMP280;6279;42.192;24.326;2022-12-29T09:40:59;100192.56;;;24.53
12430;BMP280;6279;42.192;24.326;2022-12-29T09:46:28;100181.06;;;24.41
12430;BMP280;6279;42.192;24.326;2022-12-29T09:51:49;100175.97;;;23.16
12430;BMP280;6279;42.192;24.326;2022-12-29T09:54:29;100168.34;;;23.02
12430;BMP280;6279;42.192;24.326;2022-12-29T09:56:57;100160.88;;;23.17
12430;BMP280;6279;42.192;24.326;2022-12-29T09:59:40;100163.31;;;23.42
12430;BMP280;6279;42.192;24.326;2022-12-29T10:02:16;100159.03;;;22.69
12430;BMP280;6279;42.192;24.326;2022-12-29T10:04:45;100148.63;;;22.07
12430;BMP280;6279;42.192;24.326;2022-12-29T10:07:31;100137.38;;;22.18
12430;BMP280;6279;42.192;24.326;2022-12-29T10:15:34;100136.59;;;22.11
12430;BMP280;6279;42.192;24.326;2022-12-29T10:21:47;100123.78;;;23.28
12430;BMP280;6279;42.192;24.326;2022-12-29T10:23:53;100119.38;;;22.26
12430;BMP280;6279;42.192;24.326;2022-12-29T10:26:21;100130.34;;;21.44
12430;BMP280;6279;42.192;24.326;2022-12-29T10:28:52;100131.06;;;20.95
12430;BMP280;6279;42.192;24.326;2022-12-29T10:31:21;100129.84;;;20.78
12430;BMP280;6279;42.192;24.326;2022-12-29T10:33:51;100118.25;;;20.79
12430;BMP280;6279;42.192;24.326;2022-12-29T10:36:26;100118.78;;;20.18
12430;BMP280;6279;42.192;24.326;2022-12-29T10:38:58;100122.84;;;18.88
12430;BMP280;6279;42.192;24.326;2022-12-29T10:41:32;100137.34;;;17.61
12430;BMP280;6279;42.192;24.326;2022-12-29T10:43:59;100129.06;;;16.43
12430;BMP280;6279;42.192;24.326;2022-12-29T10:46:30;100126.97;;;15.95
12430;BMP280;6279;42.192;24.326;2022-12-29T10:48:56;100120.72;;;15.36
12430;BMP280;6279;42.192;24.326;2022-12-29T10:51:26;100115.63;;;15.42
12430;BMP280;6279;42.192;24.326;2022-12-29T10:56:57;100102.88;;;15.39
12430;BMP280;6279;42.192;24.326;2022-12-29T10:59:29;100099.72;;;15.44
12430;BMP280;6279;42.192;24.326;2022-12-29T11:07:16;100108.03;;;14.48
12430;BMP280;6279;42.192;24.326;2022-12-29T11:09:44;100105.88;;;14.28
12430;BMP280;6279;42.192;24.326;2022-12-29T11:12:28;100093.63;;;14.37
12430;BMP280;6279;42.192;24.326;2022-12-29T11:17:46;100078.56;;;14.39
12430;BMP280;6279;42.192;24.326;2022-12-29T11:22:45;100072.47;;;13.83
12430;BMP280;6279;42.192;24.326;2022-12-29T11:25:12;100070.91;;;13.98
12430;BMP280;6279;42.192;24.326;2022-12-29T11:27:37;100062.88;;;14.00
12430;BMP280;6279;42.192;24.326;2022-12-29T11:30:22;100057.91;;;13.65
12430;BMP280;6279;42.192;24.326;2022-12-29T11:32:52;100059.72;;;13.65
12430;BMP280;6279;42.192;24.326;2022-12-29T11:37:58;100055.59;;;12.98
12430;BMP280;6279;42.192;24.326;2022-12-29T11:40:25;100062.38;;;12.84
12430;BMP280;6279;42.192;24.326;2022-12-29T11:42:53;100045.88;;;12.83
12430;BMP280;6279;42.192;24.326;2022-12-29T11:45:21;100050.31;;;12.66
12430;BMP280;6279;42.192;24.326;2022-12-29T11:47:50;100052.56;;;12.53
12430;BMP280;6279;42.192;24.326;2022-12-29T11:50:25;100045.88;;;12.33
12430;BMP280;6279;42.192;24.326;2022-12-29T11:52:59;100042.09;;;12.28
12430;BMP280;6279;42.192;24.326;2022-12-29T11:55:26;100036.97;;;12.36
12430;BMP280;6279;42.192;24.326;2022-12-29T11:57:54;100034.38;;;12.44
12430;BMP280;6279;42.192;24.326;2022-12-29T12:00:24;100030.19;;;12.26
12430;BMP280;6279;42.192;24.326;2022-12-29T12:05:23;100033.34;;;12.12
12430;BMP280;6279;42.192;24.326;2022-12-29T12:08:09;100018.47;;;12.29
12430;BMP280;6279;42.192;24.326;2022-12-29T12:10:46;100024.66;;;12.28
12430;BMP280;6279;42.192;24.326;2022-12-29T12:13:19;100018.47;;;12.05
12430;BMP280;6279;42.192;24.326;2022-12-29T12:15:51;100021.91;;;12.05
12430;BMP280;6279;42.192;24.326;2022-12-29T12:18:24;100029.09;;;12.11
12430;BMP280;6279;42.192;24.326;2022-12-29T12:20:56;100021.44;;;12.09
12430;BMP280;6279;42.192;24.326;2022-12-29T12:23:30;100018.69;;;12.11
12430;BMP280;6279;42.192;24.326;2022-12-29T12:26:09;100013.69;;;12.17
12430;BMP280;6279;42.192;24.326;2022-12-29T12:28:48;100014.78;;;12.15
12430;BMP280;6279;42.192;24.326;2022-12-29T12:31:30;100010.72;;;11.95
12430;BMP280;6279;42.192;24.326;2022-12-29T12:34:03;100010.47;;;11.98
12430;BMP280;6279;42.192;24.326;2022-12-29T12:48:02;99993.25;;;12.13
12430;BMP280;6279;42.192;24.326;2022-12-29T12:53:35;99993.56;;;12.10
12430;BMP280;6279;42.192;24.326;2022-12-29T12:58:52;100003.66;;;12.05
12430;BMP280;6279;42.192;24.326;2022-12-29T13:04:19;100003.53;;;11.89
12430;BMP280;6279;42.192;24.326;2022-12-29T13:17:49;99994.75;;;11.73
12430;BMP280;6279;42.192;24.326;2022-12-29T13:21:00;99996.91;;;11.61
12430;BMP280;6279;42.192;24.326;2022-12-29T13:26:50;100002.06;;;11.70
12430;BMP280;6279;42.192;24.326;2022-12-29T13:35:28;100005.19;;;11.73
12430;BMP280;6279;42.192;24.326;2022-12-29T13:37:59;100005.50;;;11.70
12430;BMP280;6279;42.192;24.326;2022-12-29T13:40:26;100007.06;;;11.63
12430;BMP280;6279;42.192;24.326;2022-12-29T13:42:55;100003.03;;;11.69
12430;BMP280;6279;42.192;24.326;2022-12-29T13:45:24;100003.69;;;11.71
12430;BMP280;6279;42.192;24.326;2022-12-29T13:50:22;100006.69;;;11.41
12430;BMP280;6279;42.192;24.326;2022-12-29T13:53:08;100005.19;;;11.56
12430;BMP280;6279;42.192;24.326;2022-12-29T13:55:51;99997.63;;;11.45
12430;BMP280;6279;42.192;24.326;2022-12-29T14:01:12;100006.00;;;11.39
12430;BMP280;6279;42.192;24.326;2022-12-29T14:03:53;100003.41;;;11.39
12430;BMP280;6279;42.192;24.326;2022-12-29T14:06:25;100009.72;;;11.37
12430;BMP280;6279;42.192;24.326;2022-12-29T14:08:53;100013.78;;;11.22
12430;BMP280;6279;42.192;24.326;2022-12-29T14:11:22;100008.41;;;11.24
12430;BMP280;6279;42.192;24.326;2022-12-29T14:13:50;100012.66;;;11.25
12430;BMP280;6279;42.192;24.326;2022-12-29T14:16:30;100013.41;;;11.17
12430;BMP280;6279;42.192;24.326;2022-12-29T14:19:04;100015.97;;;11.00
12430;BMP280;6279;42.192;24.326;2022-12-29T14:21:39;100017.38;;;10.95
12430;BMP280;6279;42.192;24.326;2022-12-29T14:24:28;100018.81;;;11.07
12430;BMP280;6279;42.192;24.326;2022-12-29T14:34:47;100017.13;;;10.89
12430;BMP280;6279;42.192;24.326;2022-12-29T14:37:23;100029.81;;;10.74
12430;BMP280;6279;42.192;24.326;2022-12-29T14:39:49;100036.53;;;10.68
12430;BMP280;6279;42.192;24.326;2022-12-29T14:42:19;100033.94;;;10.68
12430;BMP280;6279;42.192;24.326;2022-12-29T14:45:07;100039.16;;;10.68
12430;BMP280;6279;42.192;24.326;2022-12-29T14:47:50;100037.22;;;10.70
12430;BMP280;6279;42.192;24.326;2022-12-29T14:57:43;100041.75;;;10.23
12430;BMP280;6279;42.192;24.326;2022-12-29T15:02:46;100043.94;;;10.27
12430;BMP280;6279;42.192;24.326;2022-12-29T15:05:26;100042.63;;;10.05
12430;BMP280;6279;42.192;24.326;2022-12-29T15:07:53;100049.75;;;9.84
12430;BMP280;6279;42.192;24.326;2022-12-29T15:10:19;100044.13;;;9.70
12430;BMP280;6279;42.192;24.326;2022-12-29T15:12:49;100051.13;;;9.88
12430;BMP280;6279;42.192;24.326;2022-12-29T15:15:25;100045.75;;;9.80
12430;BMP280;6279;42.192;24.326;2022-12-29T15:17:55;100046.97;;;9.58
12430;BMP280;6279;42.192;24.326;2022-12-29T15:20:31;100046.84;;;9.50
12430;BMP280;6279;42.192;24.326;2022-12-29T15:23:10;100056.44;;;9.68
12430;BMP280;6279;42.192;24.326;2022-12-29T15:28:26;100052.56;;;9.44
12430;BMP280;6279;42.192;24.326;2022-12-29T15:31:08;100057.44;;;9.28
12430;BMP280;6279;42.192;24.326;2022-12-29T15:33:39;100056.66;;;9.37
12430;BMP280;6279;42.192;24.326;2022-12-29T15:36:10;100062.81;;;9.45
12430;BMP280;6279;42.192;24.326;2022-12-29T15:38:36;100063.88;;;9.24
12430;BMP280;6279;42.192;24.326;2022-12-29T15:41:43;100062.78;;;9.18
12430;BMP280;6279;42.192;24.326;2022-12-29T15:44:45;100069.56;;;9.09
12430;BMP280;6279;42.192;24.326;2022-12-29T15:47:21;100069.03;;;9.06
12430;BMP280;6279;42.192;24.326;2022-12-29T15:49:49;100067.91;;;8.99
12430;BMP280;6279;42.192;24.326;2022-12-29T15:52:20;100062.50;;;9.20
12430;BMP280;6279;42.192;24.326;2022-12-29T15:54:51;100065.75;;;9.04
12430;BMP280;6279;42.192;24.326;2022-12-29T15:57:36;100071.16;;;8.92
12430;BMP280;6279;42.192;24.326;2022-12-29T16:00:01;100061.66;;;8.72
12430;BMP280;6279;42.192;24.326;2022-12-29T16:02:28;100081.44;;;8.64
12430;BMP280;6279;42.192;24.326;2022-12-29T16:04:54;100081.81;;;8.59
12430;BMP280;6279;42.192;24.326;2022-12-29T16:07:32;100076.59;;;8.79
12430;BMP280;6279;42.192;24.326;2022-12-29T16:10:02;100083.41;;;8.80
12430;BMP280;6279;42.192;24.326;2022-12-29T16:12:40;100082.13;;;8.75
12430;BMP280;6279;42.192;24.326;2022-12-29T16:15:13;100087.47;;;8.74
12430;BMP280;6279;42.192;24.326;2022-12-29T16:20:41;100080.72;;;8.32
12430;BMP280;6279;42.192;24.326;2022-12-29T16:23:18;100083.66;;;8.48
12430;BMP280;6279;42.192;24.326;2022-12-29T16:25:44;100085.78;;;8.63
12430;BMP280;6279;42.192;24.326;2022-12-29T16:28:18;100077.34;;;8.41
12430;BMP280;6279;42.192;24.326;2022-12-29T16:30:44;100091.06;;;8.32
12430;BMP280;6279;42.192;24.326;2022-12-29T16:33:35;100084.69;;;8.16
12430;BMP280;6279;42.192;24.326;2022-12-29T16:36:01;100085.22;;;8.10
12430;BMP280;6279;42.192;24.326;2022-12-29T16:38:32;100086.03;;;8.00
12430;BMP280;6279;42.192;24.326;2022-12-29T16:41:00;100088.34;;;8.14
12430;BMP280;6279;42.192;24.326;2022-12-29T16:43:34;100093.53;;;8.14
12430;BMP280;6279;42.192;24.326;2022-12-29T16:48:27;100098.03;;;8.01